Aeroporto :
LOGIN :

Iscrizione | Disclaimer

   EN    FR    IT 

 










Sommario :    VFR   VFR Marginale   IFR   IFR Intensivo   IFR Molto Intensivo
Visibilità : 
Base nubi : 
>= 8 km
>= 3000ft
5 / 8 km
1000 / 3000 ft
1500m / 5 km
500 / 1000 ft
800 / 1500m
200 / 500 ft
< 800m
< 200 ft
Simboli :   Temporali  Nebbia  Neve Forte  Precipitazioni Forti  Vento > 20 kt
SIGMETs :   Varie  Temporali  Ghiacco  Turbolenza  Onda orograficha  Ceneri Vulcaniche






- Altitudine del aeroporto : 135 ft
- Codice IATA : TLV


LLBG - Ben Gurion

ULTIMO METAR :
  • 051050Z 26014KT 9000 NSC 25/11 Q1011 BECMG 5000 DU

METARs OBSOLETI :
  • 051020Z 26019KT CAVOK 26/11 Q1011 TEMPO 27020G30KT 5000 DU
  • 050950Z 23014G27KT 9000 NSC 28/08 Q1010 BECMG 27015KT 5000 DU
  • 050920Z 19013KT CAVOK 35/01 Q1009 BECMG 26015KT 6000 NSC
  • 050850Z 18013KT CAVOK 35/02 Q1009 BECMG 24015KT 6000 NSC
  • 050820Z 15012KT CAVOK 34/06 Q1009 BECMG 24015KT 6000 NSC

TAF AMD TAF LLBG
Valido dal 05 a 08 ore il 06 a 06 ore UTC


050753Z 0508/0606 16015KT CAVOK
BECMG 0509/0511 24015KT 6000
TEMPO 0511/0516 27020G30KT 3000 DU
BECMG 0516/0518 VRB04KT 8000 SCT020
PROB40 0518/0524 24006KT 5000 HZ BKN015 TX34/0509Z TN16/0518Z



MetMap, La meteo Aeronautica in un colpo d'occhio ! - Copyright ORBIFLY Dicembre 2007 - Disclaimer

ORBIFLY MET'MAP TEAM :

Programmazione e sviluppo : Alexandra Zaïnal
Concezione : Baudouin d'Aumeries
Aiuto per la programmazione : Marc-Olivier Méhu
Supporto tecnico e logistico : Manuel Goepfert
Aiuto per la traduzione : Arnaldo La Scala

Contatto : metmap@orbifly.com




FONTI E CREDITI :

   NOAA